Dubois, Wyoming
Current Conditions -  °F | °C
As of 1:15 AM on Friday 28 Nov 2014 (Local Time) from KDUB Reporting Station
Clear Clear  
Wind Chill: 29°   Ceiling: Unl
Heat Index: 37°   Visibility: 10mi
Dew Point: 21°   Wind: 14mph
Humidity: 52%   Direction: 330°NNW
Pressure: 30.03"   Gusts: 18mph
Location:  43.53°N, 109.63°W
Report Text: KDUB 280815Z AUTO 33012G16KT 10SM CLR 03/M06 A3003 RMK AO2
Loading
Personal Weather Stations






























Interactive Weather Map New forecast layout! Learn more

10-Day Weather Forecast

Advertisements
Track Severe Weather on mobile